CheckWX is a tool to help pilots better visualize weather data.  It is not intended as a substitute for an official pre-flight weather briefing.

12:24:12 UTC

CYYG TAF
Charlottetown Airport
Charlottetown, Canada
TAF CYYG 271139Z 2712/2724 15012KT P6SM BKN060 RMK NXT FCST BY 271800Z

Jun-27@
12:00 UTC

Jun-27 @ 12:00 UTC

Jun-28@
00:00 UTC

Jun-28 @ 00:00 UTC

TAF CYYG 271139Z 2712/2724 15012KT P6SM BKN060 RMK NXT FCST BY 271800Z
Wind
  • 150° at 12 KTS
Cloud Levels
  • Broken at 6,000' AGL